createdAt,value
2023-03-13T00:00:54.987Z,32.50
2023-03-13T00:03:22.954Z,26.80
2023-03-13T00:05:50.511Z,27.00
2023-03-13T00:08:18.041Z,22.17
2023-03-13T00:10:45.507Z,33.10
2023-03-13T00:13:14.630Z,42.57
2023-03-13T00:15:42.085Z,28.70
2023-03-13T00:18:09.555Z,39.40
2023-03-13T00:20:37.011Z,45.23
2023-03-13T00:23:04.512Z,30.93
2023-03-13T00:25:32.002Z,22.73
2023-03-13T00:27:59.524Z,17.93
2023-03-13T00:30:28.430Z,20.73
2023-03-13T00:32:56.060Z,18.93
2023-03-13T00:35:23.576Z,18.27
2023-03-13T00:37:51.070Z,12.93
2023-03-13T00:40:20.209Z,11.97
2023-03-13T00:42:47.678Z,12.83
2023-03-13T00:45:15.261Z,22.97
2023-03-13T00:47:44.054Z,12.00
2023-03-13T00:50:12.455Z,20.13
2023-03-13T00:52:39.903Z,17.10
2023-03-13T00:55:08.653Z,15.43
2023-03-13T00:57:37.463Z,10.37
2023-03-13T01:00:07.240Z,14.73
2023-03-13T01:02:34.884Z,13.33
2023-03-13T01:05:04.084Z,15.07
2023-03-13T01:07:31.554Z,12.07
2023-03-13T01:09:59.013Z,12.23
2023-03-13T01:12:26.467Z,12.87
2023-03-13T01:14:54.178Z,12.67
2023-03-13T01:17:22.061Z,11.13
2023-03-13T01:19:49.903Z,9.10
2023-03-13T01:22:18.750Z,10.83
2023-03-13T01:24:50.023Z,9.60
2023-03-13T01:27:17.507Z,9.63
2023-03-13T01:29:45.003Z,8.40
2023-03-13T01:32:12.483Z,10.23
2023-03-13T01:34:40.552Z,11.57
2023-03-13T01:37:08.045Z,10.50
2023-03-13T01:39:36.848Z,11.27
2023-03-13T01:42:04.697Z,9.37
2023-03-13T01:44:50.684Z,9.80
2023-03-13T01:47:18.182Z,11.03
2023-03-13T01:49:46.303Z,10.87
2023-03-13T01:52:17.140Z,5.90
2023-03-13T01:54:51.028Z,11.37
2023-03-13T01:57:23.598Z,6.93
2023-03-13T01:59:55.063Z,7.47
2023-03-13T02:02:23.722Z,7.07
2023-03-13T02:04:56.670Z,7.70
2023-03-13T02:07:28.260Z,12.03
2023-03-13T02:09:57.856Z,6.43
2023-03-13T02:12:30.621Z,5.83
2023-03-13T02:15:00.122Z,9.40
2023-03-13T02:17:28.427Z,7.50
2023-03-13T02:19:56.070Z,6.43
2023-03-13T02:22:32.776Z,9.83
2023-03-13T02:25:07.727Z,9.13
2023-03-13T02:27:36.606Z,9.83
2023-03-13T02:30:05.462Z,9.57
2023-03-13T02:32:33.290Z,6.77
2023-03-13T02:35:05.796Z,7.80
2023-03-13T02:37:34.520Z,7.80
2023-03-13T02:40:06.193Z,8.10
2023-03-13T02:42:33.707Z,6.87
2023-03-13T02:45:02.509Z,6.27
2023-03-13T02:47:29.982Z,6.23
2023-03-13T02:49:57.464Z,8.57
2023-03-13T02:52:28.989Z,7.37
2023-03-13T02:55:00.007Z,7.37
2023-03-13T02:57:27.602Z,8.87
2023-03-13T02:59:55.070Z,5.93
2023-03-13T03:02:23.964Z,5.83
2023-03-13T03:04:51.498Z,7.43
2023-03-13T03:07:19.065Z,5.90
2023-03-13T03:09:46.533Z,6.27
2023-03-13T03:12:14.020Z,5.93
2023-03-13T03:14:41.622Z,9.17
2023-03-13T03:17:09.139Z,6.93
2023-03-13T03:19:37.908Z,6.17
2023-03-13T03:22:06.037Z,6.53
2023-03-13T03:24:33.542Z,6.27
2023-03-13T03:27:01.004Z,5.77
2023-03-13T03:29:28.700Z,5.17
2023-03-13T03:31:56.371Z,4.63
2023-03-13T03:34:24.016Z,5.47
2023-03-13T03:36:52.980Z,6.77
2023-03-13T03:39:20.470Z,5.53
2023-03-13T03:41:47.961Z,8.93
2023-03-13T03:44:15.502Z,7.27
2023-03-13T03:46:42.982Z,5.20
2023-03-13T03:49:10.464Z,5.67
2023-03-13T03:51:37.924Z,10.40
2023-03-13T03:54:06.749Z,4.70
2023-03-13T03:56:34.268Z,5.93
2023-03-13T03:59:01.739Z,7.67
2023-03-13T04:01:29.318Z,5.67
2023-03-13T04:03:56.794Z,7.07
2023-03-13T04:06:24.255Z,5.50
2023-03-13T04:08:51.738Z,7.37
2023-03-13T04:11:20.532Z,7.23
2023-03-13T04:13:48.055Z,4.40
2023-03-13T04:16:15.644Z,4.93
2023-03-13T04:18:43.152Z,4.93
2023-03-13T04:21:10.609Z,4.13
2023-03-13T04:23:38.099Z,5.27
2023-03-13T04:26:05.850Z,5.00
2023-03-13T04:28:34.659Z,5.73
2023-03-13T04:31:02.217Z,8.40
2023-03-13T04:33:30.417Z,5.23
2023-03-13T04:35:58.029Z,6.73
2023-03-13T04:38:25.560Z,7.00
2023-03-13T04:40:53.051Z,8.53
2023-03-13T04:43:20.534Z,5.90
2023-03-13T04:45:50.049Z,8.57
2023-03-13T04:48:17.567Z,8.30
2023-03-13T04:50:45.049Z,6.93
2023-03-13T04:53:12.521Z,6.60
2023-03-13T04:55:40.099Z,7.17
2023-03-13T04:58:07.619Z,7.00
2023-03-13T05:00:35.103Z,7.33
2023-03-13T05:03:03.925Z,6.97
2023-03-13T05:05:31.413Z,7.40
2023-03-13T05:07:58.918Z,8.43
2023-03-13T05:10:26.490Z,10.23
2023-03-13T05:12:54.029Z,9.23
2023-03-13T05:15:21.512Z,10.43
2023-03-13T05:17:48.990Z,8.07
2023-03-13T05:20:18.031Z,8.00
2023-03-13T05:22:45.552Z,7.23
2023-03-13T05:25:13.141Z,7.17
2023-03-13T05:27:40.688Z,7.50
2023-03-13T05:30:09.695Z,10.80
2023-03-13T05:32:37.234Z,7.77
2023-03-13T05:35:05.176Z,7.57
2023-03-13T05:37:34.081Z,10.57
2023-03-13T05:40:01.581Z,9.47
2023-03-13T05:42:29.071Z,13.30
2023-03-13T05:44:56.556Z,10.17
2023-03-13T05:47:24.054Z,8.57
2023-03-13T05:49:51.527Z,7.50
2023-03-13T05:52:19.017Z,7.13
2023-03-13T05:54:47.829Z,7.80
2023-03-13T05:57:15.320Z,9.10
2023-03-13T05:59:42.933Z,12.00
2023-03-13T06:02:10.396Z,9.67
2023-03-13T06:04:37.946Z,9.20
2023-03-13T06:07:05.840Z,11.70
2023-03-13T06:09:33.398Z,10.03
2023-03-13T06:12:02.188Z,9.07
2023-03-13T06:14:29.659Z,9.30
2023-03-13T06:16:57.119Z,8.87
2023-03-13T06:19:25.062Z,10.30
2023-03-13T06:21:53.266Z,9.63
2023-03-13T06:24:20.755Z,10.27
2023-03-13T06:26:49.991Z,9.90
2023-03-13T06:29:18.963Z,9.00
2023-03-13T06:31:46.607Z,12.03
2023-03-13T06:34:14.617Z,10.17
2023-03-13T06:36:42.084Z,11.47
2023-03-13T06:39:10.219Z,9.27
2023-03-13T06:41:37.694Z,12.00
2023-03-13T06:44:05.203Z,9.57
2023-03-13T06:46:34.407Z,13.43
2023-03-13T06:49:04.568Z,12.67
2023-03-13T06:51:32.480Z,13.23
2023-03-13T06:54:00.145Z,11.97
2023-03-13T06:56:27.569Z,13.83
2023-03-13T06:58:55.030Z,15.47
2023-03-13T07:01:22.610Z,15.83
2023-03-13T07:03:51.496Z,19.07
2023-03-13T07:06:19.490Z,13.70
2023-03-13T07:08:47.174Z,15.67
2023-03-13T07:11:15.429Z,14.93
2023-03-13T07:13:43.076Z,11.90
2023-03-13T07:16:12.980Z,12.63
2023-03-13T07:18:44.369Z,16.60
2023-03-13T07:21:13.738Z,12.27
2023-03-13T07:23:41.626Z,12.30
2023-03-13T07:26:12.299Z,14.70
2023-03-13T07:28:39.944Z,14.83
2023-03-13T07:31:09.455Z,13.57
2023-03-13T07:33:36.983Z,12.17
2023-03-13T07:36:05.392Z,13.83
2023-03-13T07:38:34.332Z,14.60
2023-03-13T07:41:01.955Z,11.33
2023-03-13T07:43:31.359Z,14.23
2023-03-13T07:46:00.221Z,11.67
2023-03-13T07:48:31.029Z,13.83
2023-03-13T07:50:59.524Z,12.97
2023-03-13T07:53:28.053Z,11.93
2023-03-13T07:55:58.965Z,11.00
2023-03-13T07:58:28.286Z,13.03
2023-03-13T08:00:55.806Z,13.47
2023-03-13T08:03:24.271Z,13.47
2023-03-13T08:05:59.883Z,22.10
2023-03-13T08:08:27.658Z,14.67
2023-03-13T08:10:55.148Z,13.93
2023-03-13T08:13:23.922Z,10.93
2023-03-13T08:15:51.370Z,10.47
2023-03-13T08:18:18.876Z,11.03
2023-03-13T08:20:46.326Z,13.20
2023-03-13T08:23:13.783Z,11.33
2023-03-13T08:25:41.220Z,11.13
2023-03-13T08:28:08.823Z,11.03
2023-03-13T08:30:37.733Z,11.17
2023-03-13T08:33:07.532Z,12.60
2023-03-13T08:35:35.289Z,15.37
2023-03-13T08:38:02.909Z,11.70
2023-03-13T08:40:30.414Z,9.27
2023-03-13T08:42:57.859Z,9.77
2023-03-13T08:45:25.330Z,8.75
2023-03-13T08:47:54.654Z,9.30
2023-03-13T08:50:22.136Z,9.25
2023-03-13T08:52:49.577Z,6.47
2023-03-13T08:55:17.209Z,4.30
2023-03-13T08:57:44.661Z,3.80
2023-03-13T09:00:14.991Z,3.40
2023-03-13T09:02:42.520Z,3.88
2023-03-13T09:05:11.406Z,4.43
2023-03-13T09:07:38.870Z,3.65
2023-03-13T09:10:07.503Z,3.88
2023-03-13T09:12:34.961Z,3.92
2023-03-13T09:15:02.497Z,4.22
2023-03-13T09:17:29.983Z,4.35
2023-03-13T09:20:00.486Z,4.10
2023-03-13T09:22:29.809Z,5.30
2023-03-13T09:24:57.240Z,6.30
2023-03-13T09:27:24.709Z,7.07
2023-03-13T09:29:52.344Z,5.50
2023-03-13T09:32:20.462Z,5.35
2023-03-13T09:34:48.354Z,5.75
2023-03-13T09:37:16.057Z,5.32
2023-03-13T09:39:44.889Z,5.15
2023-03-13T09:42:17.624Z,6.32
2023-03-13T09:44:49.641Z,5.60
2023-03-13T09:47:25.031Z,6.45
2023-03-13T09:49:56.754Z,4.47
2023-03-13T09:52:25.982Z,3.60
2023-03-13T09:54:58.366Z,3.70
2023-03-13T09:57:32.346Z,4.80
2023-03-13T10:00:04.599Z,4.10
2023-03-13T10:02:34.050Z,5.45
2023-03-13T10:05:11.225Z,6.78
2023-03-13T10:07:38.745Z,4.65
2023-03-13T10:10:14.368Z,6.10
2023-03-13T10:12:45.596Z,6.80
2023-03-13T10:15:37.961Z,5.93
2023-03-13T10:18:16.625Z,5.85
2023-03-13T10:20:46.604Z,6.18
2023-03-13T10:23:17.728Z,4.55
2023-03-13T10:25:46.578Z,4.25
2023-03-13T10:28:15.518Z,4.25
2023-03-13T10:30:48.791Z,3.80
2023-03-13T10:33:21.777Z,3.20
2023-03-13T10:36:01.206Z,4.15
2023-03-13T10:38:28.702Z,4.00
2023-03-13T10:41:02.055Z,3.90
2023-03-13T10:43:30.440Z,4.53
2023-03-13T10:45:57.896Z,4.47
2023-03-13T10:48:27.768Z,3.92
2023-03-13T10:50:57.535Z,3.70
2023-03-13T10:53:33.385Z,3.50
2023-03-13T10:56:11.515Z,4.05
2023-03-13T10:58:43.931Z,3.80
2023-03-13T11:01:18.375Z,3.30
2023-03-13T11:03:47.426Z,2.92
2023-03-13T11:06:27.494Z,3.25
2023-03-13T11:09:04.710Z,3.10
2023-03-13T11:11:45.353Z,3.00
2023-03-13T11:14:18.264Z,3.05
2023-03-13T11:16:50.740Z,3.28
2023-03-13T11:19:30.739Z,2.78
2023-03-13T11:22:16.037Z,3.47
2023-03-13T11:24:50.282Z,3.92
2023-03-13T11:27:28.198Z,3.53
2023-03-13T11:30:08.990Z,3.75
2023-03-13T11:32:43.122Z,3.67
2023-03-13T11:35:22.147Z,3.30
2023-03-13T11:37:53.233Z,3.50
2023-03-13T11:40:22.995Z,3.80
2023-03-13T11:43:22.020Z,4.35
2023-03-13T11:46:09.458Z,4.50
2023-03-13T11:48:49.925Z,4.63
2023-03-13T11:51:25.681Z,4.75
2023-03-13T11:54:17.148Z,4.47
2023-03-13T11:56:47.998Z,5.45
2023-03-13T11:59:31.424Z,4.82
2023-03-13T12:02:05.579Z,5.22
2023-03-13T12:04:37.789Z,4.60
2023-03-13T12:07:11.286Z,4.57
2023-03-13T12:09:45.933Z,4.28
2023-03-13T12:12:20.312Z,4.85
2023-03-13T12:14:54.735Z,4.63
2023-03-13T12:17:32.819Z,5.03
2023-03-13T12:20:07.790Z,4.38
2023-03-13T12:22:40.516Z,3.92
2023-03-13T12:25:16.108Z,3.92
2023-03-13T12:27:48.362Z,3.30
2023-03-13T12:30:28.338Z,2.75
2023-03-13T12:33:02.899Z,4.95
2023-03-13T12:35:33.264Z,5.68
2023-03-13T12:38:10.123Z,5.47
2023-03-13T12:40:44.828Z,4.60
2023-03-13T12:43:18.481Z,3.67
2023-03-13T12:46:11.974Z,3.90
2023-03-13T12:49:01.048Z,4.55
2023-03-13T12:51:41.736Z,4.32
2023-03-13T12:54:40.593Z,4.15
2023-03-13T12:57:23.142Z,5.68
2023-03-13T12:59:55.585Z,5.07
2023-03-13T13:02:26.474Z,4.68
2023-03-13T13:04:56.947Z,5.57
2023-03-13T13:07:27.335Z,4.90
2023-03-13T13:10:18.605Z,4.50
2023-03-13T13:12:47.036Z,4.80
2023-03-13T13:15:23.451Z,5.40
2023-03-13T13:17:58.267Z,4.63
2023-03-13T13:20:35.009Z,4.70
2023-03-13T13:23:34.662Z,4.90
2023-03-13T13:26:41.967Z,5.45
2023-03-13T13:29:55.863Z,5.25
2023-03-13T13:32:45.903Z,3.83
2023-03-13T13:35:26.904Z,2.15
2023-03-13T13:38:15.433Z,1.90
2023-03-13T13:41:00.001Z,3.30
2023-03-13T13:43:31.970Z,4.43
2023-03-13T13:46:03.567Z,2.35
2023-03-13T13:48:34.139Z,2.20
2023-03-13T13:51:33.408Z,2.70
2023-03-13T13:54:03.017Z,3.63
2023-03-13T13:56:36.160Z,2.20
2023-03-13T13:59:12.913Z,1.88
2023-03-13T14:01:42.591Z,2.38
2023-03-13T14:04:16.519Z,2.70
2023-03-13T14:06:49.625Z,2.10
2023-03-13T14:09:32.245Z,1.95
2023-03-13T14:11:59.807Z,1.75
2023-03-13T14:14:27.441Z,2.85
2023-03-13T14:16:57.072Z,3.08
2023-03-13T14:19:30.437Z,2.47
2023-03-13T14:22:05.215Z,2.42
2023-03-13T14:24:32.830Z,4.05
2023-03-13T14:27:00.927Z,3.60
2023-03-13T14:29:28.775Z,2.50
2023-03-13T14:31:58.643Z,2.53
2023-03-13T14:34:28.377Z,3.38
2023-03-13T14:37:16.781Z,1.90
2023-03-13T14:39:48.656Z,5.72
2023-03-13T14:42:17.878Z,3.03
2023-03-13T14:44:48.644Z,4.78
2023-03-13T14:47:24.048Z,2.60
2023-03-13T14:49:58.719Z,2.75
2023-03-13T14:52:28.114Z,2.80
2023-03-13T14:54:58.506Z,3.47
2023-03-13T14:57:27.782Z,2.92
2023-03-13T14:59:56.078Z,1.90
2023-03-13T15:02:25.444Z,1.83
2023-03-13T15:04:59.581Z,1.90
2023-03-13T15:07:28.747Z,3.22
2023-03-13T15:09:57.642Z,2.80
2023-03-13T15:12:25.362Z,2.55
2023-03-13T15:14:53.884Z,2.58
2023-03-13T15:17:23.550Z,4.30
2023-03-13T15:19:53.863Z,4.68
2023-03-13T15:22:27.014Z,3.90
2023-03-13T15:25:05.712Z,4.45
2023-03-13T15:27:35.956Z,4.43
2023-03-13T15:30:03.652Z,4.97
2023-03-13T15:32:33.844Z,5.20
2023-03-13T15:35:03.263Z,4.75
2023-03-13T15:37:31.722Z,5.00
2023-03-13T15:39:59.289Z,5.20
2023-03-13T15:42:26.949Z,4.63
2023-03-13T15:44:55.732Z,4.65
2023-03-13T15:47:23.388Z,5.88
2023-03-13T15:49:50.962Z,4.93
2023-03-13T15:52:22.697Z,7.28
2023-03-13T15:54:51.908Z,5.10
2023-03-13T15:57:23.263Z,5.13
2023-03-13T15:59:51.100Z,4.50
2023-03-13T16:02:22.405Z,4.68
2023-03-13T16:04:50.300Z,5.78
2023-03-13T16:07:20.746Z,4.05
2023-03-13T16:09:48.902Z,4.45
2023-03-13T16:12:16.364Z,6.50
2023-03-13T16:14:43.844Z,5.38
2023-03-13T16:17:15.191Z,5.50
2023-03-13T16:19:44.149Z,4.72
2023-03-13T16:22:12.223Z,4.45
2023-03-13T16:24:40.043Z,5.25
2023-03-13T16:27:14.105Z,4.78
2023-03-13T16:29:41.565Z,7.47
2023-03-13T16:32:12.722Z,5.13
2023-03-13T16:34:40.228Z,5.40
2023-03-13T16:37:14.228Z,5.00
2023-03-13T16:39:42.123Z,5.07
2023-03-13T16:42:09.665Z,5.10
2023-03-13T16:44:37.174Z,5.15
2023-03-13T16:47:16.409Z,5.63
2023-03-13T16:49:45.757Z,5.72
2023-03-13T16:52:16.508Z,6.40
2023-03-13T16:54:44.476Z,5.68
2023-03-13T16:57:13.097Z,6.05
2023-03-13T16:59:40.651Z,6.53
2023-03-13T17:02:15.493Z,7.65
2023-03-13T17:04:44.907Z,6.78
2023-03-13T17:07:18.961Z,10.15
2023-03-13T17:09:47.031Z,9.75
2023-03-13T17:12:14.571Z,7.07
2023-03-13T17:14:42.137Z,8.38
2023-03-13T17:17:13.535Z,8.57
2023-03-13T17:19:41.098Z,7.53
2023-03-13T17:22:10.519Z,9.65
2023-03-13T17:24:39.355Z,8.95
2023-03-13T17:27:12.180Z,7.18
2023-03-13T17:29:39.735Z,7.90
2023-03-13T17:32:07.447Z,12.65
2023-03-13T17:34:34.948Z,7.53
2023-03-13T17:37:04.775Z,8.88
2023-03-13T17:39:32.396Z,5.30
2023-03-13T17:42:04.084Z,7.60
2023-03-13T17:44:31.625Z,6.25
2023-03-13T17:46:59.193Z,6.25
2023-03-13T17:49:26.708Z,6.97
2023-03-13T17:51:54.162Z,6.75
2023-03-13T17:54:21.836Z,8.18
2023-03-13T17:56:49.317Z,5.95
2023-03-13T17:59:19.791Z,6.10
2023-03-13T18:01:47.400Z,6.18
2023-03-13T18:04:15.061Z,6.50
2023-03-13T18:06:44.440Z,6.28
2023-03-13T18:09:16.240Z,5.63
2023-03-13T18:11:44.056Z,5.60
2023-03-13T18:14:11.772Z,5.95
2023-03-13T18:16:44.227Z,11.75
2023-03-13T18:19:15.922Z,8.13
2023-03-13T18:21:44.440Z,5.65
2023-03-13T18:24:13.087Z,9.73
2023-03-13T18:26:43.183Z,6.00
2023-03-13T18:29:15.944Z,6.78
2023-03-13T18:31:45.265Z,8.43
2023-03-13T18:34:13.276Z,5.25
2023-03-13T18:36:40.745Z,7.32
2023-03-13T18:39:08.216Z,5.30
2023-03-13T18:41:36.952Z,7.13
2023-03-13T18:44:04.549Z,9.25
2023-03-13T18:46:34.545Z,7.32
2023-03-13T18:49:03.698Z,6.03
2023-03-13T18:51:31.162Z,5.38
2023-03-13T18:53:59.181Z,6.32
2023-03-13T18:56:30.855Z,7.35
2023-03-13T18:58:59.318Z,5.97
2023-03-13T19:01:30.074Z,6.25
2023-03-13T19:04:00.026Z,10.70
2023-03-13T19:06:30.695Z,9.20
2023-03-13T19:09:00.185Z,7.18
2023-03-13T19:11:30.423Z,7.28
2023-03-13T19:13:58.492Z,7.78
2023-03-13T19:16:30.155Z,6.00
2023-03-13T19:18:58.225Z,10.30
2023-03-13T19:21:27.439Z,8.48
2023-03-13T19:23:56.997Z,9.30
2023-03-13T19:26:28.493Z,7.85
2023-03-13T19:28:56.251Z,10.02
2023-03-13T19:31:24.154Z,9.38
2023-03-13T19:33:53.411Z,7.97
2023-03-13T19:36:22.913Z,9.73
2023-03-13T19:38:51.626Z,9.80
2023-03-13T19:41:21.572Z,13.40
2023-03-13T19:43:50.047Z,11.57
2023-03-13T19:46:23.824Z,18.75
2023-03-13T19:48:53.709Z,16.10
2023-03-13T19:51:21.333Z,9.60
2023-03-13T19:53:48.990Z,7.88
2023-03-13T19:56:20.844Z,9.10
2023-03-13T19:58:50.034Z,9.75
2023-03-13T20:01:18.108Z,8.98
2023-03-13T20:03:46.737Z,9.88
2023-03-13T20:06:17.506Z,8.30
2023-03-13T20:08:45.378Z,7.20
2023-03-13T20:11:13.611Z,6.43
2023-03-13T20:13:43.308Z,6.68
2023-03-13T20:16:11.846Z,8.05
2023-03-13T20:18:39.644Z,7.55
2023-03-13T20:21:07.737Z,8.95
2023-03-13T20:23:35.240Z,7.85
2023-03-13T20:26:04.800Z,5.72
2023-03-13T20:28:32.351Z,6.30
2023-03-13T20:31:01.236Z,6.22
2023-03-13T20:33:28.741Z,6.00
2023-03-13T20:35:58.430Z,6.28
2023-03-13T20:38:25.980Z,5.35
2023-03-13T20:40:54.126Z,5.18
2023-03-13T20:43:21.953Z,5.95
2023-03-13T20:45:49.660Z,5.88
2023-03-13T20:48:19.186Z,6.80
2023-03-13T20:50:47.176Z,7.60
2023-03-13T20:53:15.013Z,4.78
2023-03-13T20:55:42.730Z,5.50
2023-03-13T20:58:10.217Z,4.90
2023-03-13T21:00:37.695Z,6.10
2023-03-13T21:03:05.641Z,5.55
2023-03-13T21:05:34.507Z,5.43
2023-03-13T21:08:01.953Z,8.98
2023-03-13T21:10:29.463Z,7.28
2023-03-13T21:12:56.904Z,4.32
2023-03-13T21:15:24.384Z,3.33
2023-03-13T21:17:52.099Z,4.03
2023-03-13T21:20:19.645Z,3.70
2023-03-13T21:22:48.488Z,4.05
2023-03-13T21:25:16.632Z,4.05
2023-03-13T21:27:44.688Z,3.95
2023-03-13T21:30:15.066Z,5.38
2023-03-13T21:32:42.778Z,3.78
2023-03-13T21:35:11.182Z,4.35
2023-03-13T21:37:38.923Z,5.10
2023-03-13T21:40:09.651Z,4.78
2023-03-13T21:42:37.583Z,4.38
2023-03-13T21:45:05.939Z,4.78
2023-03-13T21:47:36.815Z,4.40
2023-03-13T21:50:05.899Z,4.40
2023-03-13T21:52:38.154Z,5.38
2023-03-13T21:55:12.406Z,8.02
2023-03-13T21:57:40.961Z,6.40
2023-03-13T22:00:10.066Z,6.53
2023-03-13T22:02:38.454Z,6.32
2023-03-13T22:05:07.612Z,2.95
2023-03-13T22:07:35.395Z,2.60
2023-03-13T22:10:02.882Z,4.47
2023-03-13T22:12:31.708Z,2.70
2023-03-13T22:14:59.180Z,7.30
2023-03-13T22:17:26.719Z,5.68
2023-03-13T22:19:54.885Z,3.80
2023-03-13T22:22:23.090Z,5.95
2023-03-13T22:24:50.618Z,6.32
2023-03-13T22:27:19.404Z,4.57
2023-03-13T22:29:48.689Z,6.50
2023-03-13T22:32:16.734Z,5.40
2023-03-13T22:34:47.101Z,6.82
2023-03-13T22:37:15.168Z,5.60
2023-03-13T22:39:42.704Z,5.70
2023-03-13T22:42:10.175Z,5.55
2023-03-13T22:44:37.667Z,4.50
2023-03-13T22:47:06.532Z,11.68
2023-03-13T22:49:34.002Z,6.70
2023-03-13T22:52:02.570Z,6.30
2023-03-13T22:54:30.313Z,5.28
2023-03-13T22:56:57.861Z,5.13
2023-03-13T22:59:25.379Z,9.57
2023-03-13T23:01:52.871Z,4.82
2023-03-13T23:04:21.718Z,5.30
2023-03-13T23:06:49.227Z,8.93
2023-03-13T23:09:16.752Z,7.05
2023-03-13T23:11:44.274Z,8.07
2023-03-13T23:14:11.813Z,4.85
2023-03-13T23:16:39.360Z,6.57
2023-03-13T23:19:07.706Z,4.25
2023-03-13T23:21:36.569Z,4.60
2023-03-13T23:24:04.133Z,4.25
2023-03-13T23:26:31.657Z,4.38
2023-03-13T23:28:59.169Z,5.05
2023-03-13T23:31:26.720Z,6.18
2023-03-13T23:33:54.211Z,5.15
2023-03-13T23:36:21.724Z,3.85
2023-03-13T23:38:52.091Z,4.18
2023-03-13T23:41:20.904Z,3.80
2023-03-13T23:43:48.391Z,4.10
2023-03-13T23:46:18.062Z,4.15
2023-03-13T23:48:45.573Z,3.63
2023-03-13T23:51:13.374Z,3.63
2023-03-13T23:53:42.390Z,4.50
2023-03-13T23:56:11.794Z,4.40
2023-03-13T23:58:39.387Z,3.88
